createdAt,value
2022-09-07T00:00:21.931Z,10.29
2022-09-07T00:01:43.593Z,11.92
2022-09-07T00:03:04.803Z,10.57
2022-09-07T00:04:26.371Z,12.31
2022-09-07T00:05:49.309Z,10.62
2022-09-07T00:07:10.372Z,12.99
2022-09-07T00:08:31.791Z,12.09
2022-09-07T00:09:55.182Z,12.93
2022-09-07T00:11:18.148Z,11.73
2022-09-07T00:12:39.291Z,9.41
2022-09-07T00:14:00.667Z,11.52
2022-09-07T00:15:22.285Z,11.37
2022-09-07T00:16:43.455Z,11.71
2022-09-07T00:18:04.568Z,19.73
2022-09-07T00:19:25.839Z,14.21
2022-09-07T00:20:47.053Z,19.48
2022-09-07T00:22:08.569Z,13.23
2022-09-07T00:23:30.242Z,11.96
2022-09-07T00:24:51.965Z,11.36
2022-09-07T00:26:15.543Z,12.09
2022-09-07T00:27:36.829Z,13.12
2022-09-07T00:29:01.694Z,11.46
2022-09-07T00:30:23.266Z,12.37
2022-09-07T00:31:44.428Z,11.38
2022-09-07T00:33:05.878Z,12.22
2022-09-07T00:34:27.182Z,11.52
2022-09-07T00:35:48.832Z,12.53
2022-09-07T00:37:10.041Z,11.54
2022-09-07T00:38:31.591Z,9.74
2022-09-07T00:39:52.876Z,10.52
2022-09-07T00:41:14.499Z,14.43
2022-09-07T00:42:36.081Z,11.38
2022-09-07T00:43:59.020Z,13.14
2022-09-07T00:45:21.043Z,15.32
2022-09-07T00:46:42.689Z,11.07
2022-09-07T00:48:07.042Z,12.35
2022-09-07T00:49:28.462Z,11.23
2022-09-07T00:52:04.772Z,7.94
2022-09-07T00:53:29.480Z,11.58
2022-09-07T00:54:54.595Z,12.65
2022-09-07T00:56:16.218Z,11.27
2022-09-07T00:57:38.681Z,10.71
2022-09-07T00:58:59.930Z,11.59
2022-09-07T01:00:21.661Z,12.62
2022-09-07T01:01:43.593Z,12.77
2022-09-07T01:03:06.989Z,12.17
2022-09-07T01:04:29.872Z,10.80
2022-09-07T01:05:55.170Z,14.08
2022-09-07T01:07:16.315Z,10.62
2022-09-07T01:08:37.619Z,14.47
2022-09-07T01:09:59.922Z,12.36
2022-09-07T01:11:21.829Z,9.77
2022-09-07T01:12:42.865Z,11.03
2022-09-07T01:14:06.798Z,13.44
2022-09-07T01:18:28.283Z,10.87
2022-09-07T01:20:15.592Z,12.37
2022-09-07T01:21:52.715Z,11.09
2022-09-07T01:23:26.300Z,12.03
2022-09-07T01:25:08.160Z,11.84
2022-09-07T01:26:48.663Z,12.10
2022-09-07T01:28:13.628Z,10.50
2022-09-07T01:29:37.757Z,11.88
2022-09-07T01:31:02.931Z,11.24
2022-09-07T01:32:40.261Z,10.48
2022-09-07T01:34:22.474Z,13.18
2022-09-07T01:36:11.710Z,12.55
2022-09-07T01:39:04.680Z,11.76
2022-09-07T01:40:45.242Z,12.18
2022-09-07T01:43:34.895Z,11.17
2022-09-07T01:44:57.426Z,10.51
2022-09-07T01:46:28.814Z,9.82
2022-09-07T01:47:53.280Z,10.61
2022-09-07T01:49:17.317Z,10.13
2022-09-07T01:50:45.484Z,10.02
2022-09-07T01:52:10.618Z,10.02
2022-09-07T01:53:38.522Z,11.73
2022-09-07T01:55:03.257Z,10.32
2022-09-07T01:56:33.092Z,10.63
2022-09-07T01:59:19.785Z,10.47
2022-09-07T02:00:43.792Z,9.89
2022-09-07T02:02:07.385Z,11.04
2022-09-07T02:04:45.667Z,9.40
2022-09-07T02:06:14.306Z,10.26
2022-09-07T02:09:11.013Z,7.55
2022-09-07T02:11:46.905Z,11.63
2022-09-07T02:13:12.081Z,11.22
2022-09-07T02:14:35.955Z,10.75
2022-09-07T02:16:05.399Z,10.22
2022-09-07T02:18:47.159Z,9.75
2022-09-07T02:21:24.680Z,9.29
2022-09-07T02:24:32.263Z,9.14
2022-09-07T02:26:04.018Z,9.56
2022-09-07T02:28:37.933Z,10.33
2022-09-07T02:29:59.856Z,10.04
2022-09-07T02:31:22.346Z,10.68
2022-09-07T02:32:43.614Z,9.12
2022-09-07T02:34:05.024Z,8.89
2022-09-07T02:35:26.484Z,10.86
2022-09-07T02:36:48.375Z,10.03
2022-09-07T02:38:10.345Z,11.70
2022-09-07T02:39:31.895Z,8.18
2022-09-07T02:40:54.396Z,9.47
2022-09-07T02:42:15.803Z,11.88
2022-09-07T02:43:37.308Z,11.65
2022-09-07T02:44:58.747Z,11.50
2022-09-07T02:46:25.449Z,8.33
2022-09-07T02:47:58.836Z,9.22
2022-09-07T02:49:39.394Z,9.99
2022-09-07T02:52:58.534Z,10.17
2022-09-07T02:54:30.027Z,10.88
2022-09-07T02:56:12.977Z,9.66
2022-09-07T02:57:41.036Z,8.86
2022-09-07T02:59:06.045Z,12.56
2022-09-07T03:00:31.093Z,10.32
2022-09-07T03:03:40.307Z,8.52
2022-09-07T03:06:43.508Z,10.49
2022-09-07T03:09:23.436Z,8.58
2022-09-07T03:10:45.138Z,9.37
2022-09-07T03:12:06.848Z,8.30
2022-09-07T03:13:28.718Z,10.50
2022-09-07T03:14:50.990Z,11.14
2022-09-07T03:16:14.406Z,12.20
2022-09-07T03:17:36.023Z,10.10
2022-09-07T03:18:57.593Z,9.26
2022-09-07T03:20:20.398Z,10.23
2022-09-07T03:21:42.088Z,9.94
2022-09-07T03:23:03.512Z,8.90
2022-09-07T03:24:24.703Z,10.87
2022-09-07T03:25:47.268Z,11.84
2022-09-07T03:27:10.528Z,9.54
2022-09-07T03:29:53.060Z,10.96
2022-09-07T03:31:14.570Z,9.57
2022-09-07T03:32:36.866Z,9.86
2022-09-07T03:33:58.476Z,11.56
2022-09-07T03:35:20.880Z,9.02
2022-09-07T03:36:42.126Z,10.35
2022-09-07T03:38:03.667Z,7.89
2022-09-07T03:39:25.400Z,11.49
2022-09-07T03:40:48.454Z,9.37
2022-09-07T03:42:09.826Z,10.49
2022-09-07T03:43:33.919Z,10.68
2022-09-07T03:44:55.085Z,14.24
2022-09-07T03:46:16.815Z,10.01
2022-09-07T03:47:38.164Z,12.03
2022-09-07T03:49:00.444Z,11.29
2022-09-07T03:50:24.754Z,9.76
2022-09-07T03:51:45.966Z,12.87
2022-09-07T03:53:07.750Z,12.71
2022-09-07T03:54:29.085Z,12.22
2022-09-07T03:55:59.931Z,11.76
2022-09-07T03:57:22.468Z,8.83
2022-09-07T03:58:44.812Z,8.93
2022-09-07T04:00:06.938Z,12.25
2022-09-07T04:01:29.129Z,9.48
2022-09-07T04:02:50.645Z,12.71
2022-09-07T04:04:12.560Z,11.57
2022-09-07T04:05:34.914Z,12.42
2022-09-07T04:06:56.110Z,9.68
2022-09-07T04:08:18.311Z,14.09
2022-09-07T04:09:43.986Z,10.97
2022-09-07T04:11:05.918Z,8.49
2022-09-07T04:12:28.202Z,10.45
2022-09-07T04:13:51.643Z,8.11
2022-09-07T04:15:16.788Z,8.71
2022-09-07T04:16:38.501Z,10.81
2022-09-07T04:17:59.971Z,9.59
2022-09-07T04:19:21.970Z,10.82
2022-09-07T04:20:43.721Z,6.32
2022-09-07T04:22:05.318Z,9.17
2022-09-07T04:23:26.736Z,9.64
2022-09-07T04:24:51.023Z,11.38
2022-09-07T04:26:14.776Z,11.77
2022-09-07T04:27:38.437Z,12.56
2022-09-07T04:28:59.944Z,12.01
2022-09-07T04:30:24.283Z,13.76
2022-09-07T04:31:47.732Z,13.17
2022-09-07T04:33:09.300Z,12.17
2022-09-07T04:34:30.778Z,12.09
2022-09-07T04:35:53.415Z,12.84
2022-09-07T04:37:16.041Z,12.93
2022-09-07T04:38:37.354Z,13.71
2022-09-07T04:39:58.990Z,16.78
2022-09-07T04:41:20.488Z,14.93
2022-09-07T04:42:43.598Z,10.24
2022-09-07T04:44:05.091Z,10.45
2022-09-07T04:45:26.349Z,10.47
2022-09-07T04:46:50.210Z,10.08
2022-09-07T04:49:32.332Z,11.92
2022-09-07T04:50:53.711Z,10.05
2022-09-07T04:52:15.952Z,12.06
2022-09-07T04:53:37.958Z,15.42
2022-09-07T04:54:59.330Z,10.17
2022-09-07T04:57:43.692Z,8.81
2022-09-07T04:59:05.330Z,12.56
2022-09-07T05:00:28.139Z,12.22
2022-09-07T05:01:50.806Z,11.66
2022-09-07T05:03:12.135Z,15.61
2022-09-07T05:04:36.728Z,9.81
2022-09-07T05:06:00.366Z,14.99
2022-09-07T05:07:22.032Z,10.44
2022-09-07T05:08:44.963Z,12.23
2022-09-07T05:10:08.169Z,9.57
2022-09-07T05:11:30.134Z,14.19
2022-09-07T05:14:25.295Z,17.99
2022-09-07T05:15:46.568Z,11.37
2022-09-07T05:17:08.160Z,13.21
2022-09-07T05:18:29.737Z,15.48
2022-09-07T05:19:51.626Z,9.58
2022-09-07T05:21:15.507Z,13.17
2022-09-07T05:22:37.105Z,14.93
2022-09-07T05:23:59.141Z,13.23
2022-09-07T05:25:20.608Z,10.84
2022-09-07T05:26:42.081Z,31.22
2022-09-07T05:28:03.190Z,17.41
2022-09-07T05:32:11.786Z,11.01
2022-09-07T05:34:56.757Z,11.52
2022-09-07T05:36:18.554Z,10.24
2022-09-07T05:37:39.968Z,12.29
2022-09-07T05:39:01.545Z,15.14
2022-09-07T05:40:23.155Z,9.16
2022-09-07T05:41:44.814Z,13.97
2022-09-07T05:43:06.751Z,17.80
2022-09-07T05:44:44.347Z,18.58
2022-09-07T05:45:54.824Z,18.94
2022-09-07T05:47:17.879Z,14.22
2022-09-07T05:48:39.299Z,15.29
2022-09-07T05:50:00.767Z,16.03
2022-09-07T05:51:22.393Z,19.46
2022-09-07T05:52:43.707Z,10.80
2022-09-07T05:54:05.485Z,13.58
2022-09-07T05:55:30.825Z,13.14
2022-09-07T05:56:50.485Z,11.99
2022-09-07T05:58:12.247Z,15.00
2022-09-07T05:59:33.854Z,12.49
2022-09-07T06:02:14.584Z,14.83
2022-09-07T06:03:37.179Z,12.54
2022-09-07T06:04:58.960Z,18.83
2022-09-07T06:06:22.238Z,18.03
2022-09-07T06:07:48.002Z,23.09
2022-09-07T06:09:09.536Z,10.86
2022-09-07T06:11:59.141Z,13.27
2022-09-07T06:13:20.962Z,10.67
2022-09-07T06:14:43.161Z,11.33
2022-09-07T06:17:21.882Z,20.18
2022-09-07T06:18:49.755Z,21.86
2022-09-07T06:20:11.680Z,14.84
2022-09-07T06:21:36.964Z,25.39
2022-09-07T06:22:59.029Z,25.20
2022-09-07T06:24:23.295Z,15.14
2022-09-07T06:25:48.687Z,19.87
2022-09-07T06:27:10.417Z,13.92
2022-09-07T06:28:33.312Z,23.83
2022-09-07T06:29:57.735Z,9.64
2022-09-07T06:31:21.539Z,15.14
2022-09-07T06:32:44.790Z,8.69
2022-09-07T06:34:07.580Z,13.60
2022-09-07T06:35:29.261Z,20.09
2022-09-07T06:36:50.708Z,16.20
2022-09-07T06:38:12.276Z,27.32
2022-09-07T06:39:34.877Z,15.92
2022-09-07T06:42:27.523Z,8.99
2022-09-07T06:43:50.252Z,12.78
2022-09-07T06:45:12.147Z,16.01
2022-09-07T06:48:02.885Z,77.32
2022-09-07T06:49:26.697Z,35.20
2022-09-07T06:50:58.320Z,20.60
2022-09-07T06:52:20.187Z,16.95
2022-09-07T06:53:44.475Z,17.37
2022-09-07T06:55:08.372Z,11.11
2022-09-07T06:56:32.074Z,13.13
2022-09-07T06:57:54.208Z,12.48
2022-09-07T06:59:15.932Z,10.37
2022-09-07T07:00:38.865Z,10.03
2022-09-07T07:02:01.586Z,9.16
2022-09-07T07:03:25.237Z,20.92
2022-09-07T07:04:46.912Z,17.81
2022-09-07T07:06:10.745Z,12.94
2022-09-07T07:07:33.675Z,11.06
2022-09-07T07:10:24.927Z,15.82
2022-09-07T07:11:46.912Z,14.43
2022-09-07T07:13:08.517Z,26.28
2022-09-07T07:14:33.676Z,52.29
2022-09-07T07:17:16.058Z,16.91
2022-09-07T07:18:37.682Z,11.98
2022-09-07T07:19:59.525Z,8.31
2022-09-07T07:21:21.290Z,10.30
2022-09-07T07:22:46.728Z,15.91
2022-09-07T07:24:10.168Z,15.39
2022-09-07T07:25:34.896Z,13.58
2022-09-07T07:26:57.874Z,11.66
2022-09-07T07:29:50.185Z,10.28
2022-09-07T07:31:13.290Z,8.06
2022-09-07T07:32:36.995Z,10.31
2022-09-07T07:33:59.408Z,12.12
2022-09-07T07:35:23.466Z,11.62
2022-09-07T07:36:45.062Z,9.32
2022-09-07T07:42:21.935Z,7.30
2022-09-07T07:43:43.460Z,11.29
2022-09-07T07:46:19.051Z,10.22
2022-09-07T07:47:41.331Z,6.23
2022-09-07T07:49:04.481Z,7.79
2022-09-07T07:50:34.147Z,9.46
2022-09-07T07:54:49.767Z,7.66
2022-09-07T07:56:13.573Z,14.96
2022-09-07T07:57:34.948Z,5.32
2022-09-07T08:00:12.418Z,14.45
2022-09-07T08:01:34.762Z,8.86
2022-09-07T08:02:58.989Z,11.77
2022-09-07T08:04:24.384Z,10.69
2022-09-07T08:05:46.173Z,14.46
2022-09-07T08:07:11.322Z,10.26
2022-09-07T08:08:31.687Z,9.62
2022-09-07T08:09:53.281Z,9.51
2022-09-07T08:12:39.024Z,9.34
2022-09-07T08:14:04.623Z,16.49
2022-09-07T08:15:26.130Z,8.76
2022-09-07T08:16:48.351Z,10.02
2022-09-07T08:18:11.152Z,10.16
2022-09-07T08:19:32.950Z,8.15
2022-09-07T08:22:21.857Z,6.99
2022-09-07T08:23:45.750Z,8.12
2022-09-07T08:25:22.782Z,6.69
2022-09-07T08:26:48.535Z,6.40
2022-09-07T08:28:10.220Z,8.02
2022-09-07T08:29:34.653Z,11.36
2022-09-07T08:30:55.515Z,5.34
2022-09-07T08:32:20.108Z,6.38
2022-09-07T08:34:00.115Z,9.62
2022-09-07T08:35:21.880Z,9.71
2022-09-07T08:36:43.224Z,11.55
2022-09-07T08:38:06.931Z,5.34
2022-09-07T08:40:49.423Z,8.21
2022-09-07T08:42:17.991Z,7.13
2022-09-07T08:45:16.905Z,6.26
2022-09-07T08:46:41.950Z,10.57
2022-09-07T08:48:06.948Z,7.20
2022-09-07T08:51:12.576Z,26.31
2022-09-07T08:52:55.016Z,9.63
2022-09-07T08:54:17.918Z,14.41
2022-09-07T08:55:50.516Z,17.78
2022-09-07T08:57:26.999Z,16.85
2022-09-07T09:00:11.091Z,8.38
2022-09-07T09:02:26.273Z,9.79
2022-09-07T09:03:30.648Z,7.74
2022-09-07T09:06:25.298Z,5.40
2022-09-07T09:09:36.967Z,10.08
2022-09-07T09:11:07.019Z,12.73
2022-09-07T09:12:47.163Z,7.10
2022-09-07T09:16:05.114Z,13.46
2022-09-07T09:19:39.991Z,9.52
2022-09-07T09:21:01.760Z,6.13
2022-09-07T09:22:25.942Z,7.29
2022-09-07T09:23:49.829Z,5.64
2022-09-07T09:25:20.470Z,6.49
2022-09-07T09:26:42.038Z,8.04
2022-09-07T09:28:05.663Z,4.88
2022-09-07T09:29:28.448Z,6.48
2022-09-07T09:30:53.125Z,7.56
2022-09-07T09:32:32.410Z,6.59
2022-09-07T09:34:11.237Z,12.44
2022-09-07T09:35:37.829Z,8.89
2022-09-07T09:37:07.218Z,5.66
2022-09-07T09:40:46.011Z,5.84
2022-09-07T09:42:14.181Z,8.49
2022-09-07T09:43:55.914Z,7.77
2022-09-07T09:45:20.012Z,5.91
2022-09-07T09:47:29.195Z,5.20
2022-09-07T09:48:21.325Z,6.02
2022-09-07T09:49:44.037Z,7.73
2022-09-07T09:52:39.083Z,12.09
2022-09-07T09:54:05.154Z,13.14
2022-09-07T10:07:24.519Z,8.52
2022-09-07T10:10:33.477Z,6.79
2022-09-07T10:12:06.735Z,7.65
2022-09-07T10:13:33.579Z,7.94
2022-09-07T10:14:55.042Z,15.01
2022-09-07T10:16:17.764Z,9.84
2022-09-07T10:31:37.793Z,8.67
2022-09-07T10:34:57.988Z,7.32
2022-09-07T10:36:47.154Z,9.03
2022-09-07T10:38:16.367Z,6.63
2022-09-07T10:40:14.343Z,10.21
2022-09-07T10:41:55.916Z,14.06
2022-09-07T10:43:39.576Z,11.48
2022-09-07T10:45:18.805Z,7.16
2022-09-07T10:46:56.982Z,5.48
2022-09-07T10:48:30.534Z,9.04
2022-09-07T11:02:36.008Z,6.02
2022-09-07T11:06:45.320Z,7.26
2022-09-07T11:08:19.710Z,7.60
2022-09-07T11:13:10.664Z,5.16
2022-09-07T11:14:38.507Z,8.51
2022-09-07T11:16:08.505Z,18.48
2022-09-07T11:17:32.316Z,6.14
2022-09-07T11:22:17.483Z,5.78
2022-09-07T11:28:47.548Z,12.81
2022-09-07T11:30:19.551Z,19.73
2022-09-07T11:31:53.647Z,9.51
2022-09-07T11:35:00.455Z,15.78
2022-09-07T11:36:24.589Z,8.19
2022-09-07T11:39:46.342Z,5.75
2022-09-07T11:45:44.571Z,5.63
2022-09-07T11:47:23.620Z,8.59
2022-09-07T11:48:49.968Z,6.81
2022-09-07T11:50:32.083Z,4.15
2022-09-07T11:52:05.901Z,5.87
2022-09-07T11:53:35.996Z,4.57
2022-09-07T11:55:00.107Z,5.16
2022-09-07T11:56:36.371Z,7.91
2022-09-07T11:58:06.325Z,10.71
2022-09-07T12:01:22.129Z,5.04
2022-09-07T12:03:19.835Z,4.59
2022-09-07T12:04:56.786Z,5.54
2022-09-07T12:06:44.459Z,7.21
2022-09-07T12:08:24.597Z,6.69
2022-09-07T12:10:14.311Z,5.23
2022-09-07T12:14:02.048Z,4.96
2022-09-07T12:15:50.950Z,5.66
2022-09-07T12:19:19.023Z,4.82
2022-09-07T12:22:23.050Z,5.17
2022-09-07T12:23:48.505Z,7.96
2022-09-07T12:25:21.024Z,5.24
2022-09-07T12:26:50.093Z,7.26
2022-09-07T12:28:27.972Z,5.28
2022-09-07T12:30:01.150Z,4.79
2022-09-07T12:31:57.862Z,4.38
2022-09-07T12:35:08.958Z,5.79
2022-09-07T12:36:38.731Z,3.93
2022-09-07T12:38:02.636Z,5.27
2022-09-07T12:39:26.526Z,4.89
2022-09-07T12:42:37.174Z,5.97
2022-09-07T12:44:05.645Z,7.14
2022-09-07T12:45:40.101Z,7.97
2022-09-07T13:09:18.660Z,4.07
2022-09-07T13:10:42.628Z,7.34
2022-09-07T13:14:16.237Z,7.03
2022-09-07T13:16:13.469Z,7.34
2022-09-07T13:17:38.279Z,5.79
2022-09-07T13:20:22.680Z,8.48
2022-09-07T13:21:45.021Z,5.91
2022-09-07T13:23:21.786Z,6.23
2022-09-07T13:24:52.393Z,7.35
2022-09-07T13:26:54.110Z,6.53
2022-09-07T13:28:28.834Z,5.42
2022-09-07T13:32:08.445Z,7.49
2022-09-07T13:33:41.794Z,6.92
2022-09-07T13:35:07.638Z,8.30
2022-09-07T13:36:37.385Z,6.20
2022-09-07T13:38:06.992Z,9.46
2022-09-07T13:39:30.405Z,5.72
2022-09-07T13:40:52.817Z,8.85
2022-09-07T13:43:53.315Z,7.13
2022-09-07T13:46:58.265Z,5.22
2022-09-07T13:48:32.684Z,11.01
2022-09-07T13:50:09.211Z,5.07
2022-09-07T13:51:50.624Z,6.10
2022-09-07T13:53:21.081Z,9.82
2022-09-07T13:54:52.838Z,6.84
2022-09-07T13:56:53.402Z,7.72
2022-09-07T13:58:19.314Z,10.77
2022-09-07T13:59:45.493Z,7.76
2022-09-07T14:02:31.454Z,7.23
2022-09-07T14:03:59.703Z,7.39
2022-09-07T14:05:20.974Z,9.37
2022-09-07T14:06:43.298Z,4.48
2022-09-07T14:08:07.838Z,4.91
2022-09-07T14:09:29.241Z,6.28
2022-09-07T14:10:54.276Z,4.32
2022-09-07T14:12:20.723Z,6.13
2022-09-07T14:13:42.741Z,7.10
2022-09-07T14:15:13.500Z,6.02
2022-09-07T14:16:35.562Z,5.59
2022-09-07T14:18:05.654Z,6.11
2022-09-07T14:19:47.811Z,4.08
2022-09-07T14:22:32.244Z,8.21
2022-09-07T14:23:53.745Z,7.59
2022-09-07T14:25:19.551Z,7.22
2022-09-07T14:26:46.980Z,10.15
2022-09-07T14:28:30.720Z,5.67
2022-09-07T14:29:52.311Z,4.99
2022-09-07T14:31:19.240Z,3.76
2022-09-07T14:32:41.606Z,8.19
2022-09-07T14:34:04.184Z,8.74
2022-09-07T14:36:51.226Z,6.59
2022-09-07T14:39:49.289Z,10.44
2022-09-07T14:41:17.760Z,7.23
2022-09-07T14:42:41.008Z,9.64
2022-09-07T14:44:04.441Z,9.57
2022-09-07T14:45:31.689Z,8.84
2022-09-07T14:46:56.818Z,10.09
2022-09-07T14:48:18.537Z,8.81
2022-09-07T14:49:40.085Z,14.47
2022-09-07T14:51:29.523Z,9.46
2022-09-07T14:52:43.392Z,9.09
2022-09-07T14:54:02.625Z,5.56
2022-09-07T14:55:42.936Z,6.92
2022-09-07T14:58:23.578Z,6.33
2022-09-07T14:59:54.268Z,3.81
2022-09-07T15:02:43.924Z,4.79
2022-09-07T15:04:10.473Z,6.12
2022-09-07T15:05:34.978Z,7.45
2022-09-07T15:07:04.561Z,6.69
2022-09-07T15:10:23.167Z,4.78
2022-09-07T15:11:45.409Z,4.36
2022-09-07T15:14:53.225Z,4.68
2022-09-07T15:17:44.852Z,4.82
2022-09-07T15:19:19.271Z,6.84
2022-09-07T15:20:42.462Z,3.01
2022-09-07T15:22:07.773Z,7.62
2022-09-07T15:23:31.982Z,7.49
2022-09-07T15:27:49.971Z,6.38
2022-09-07T15:29:13.002Z,4.74
2022-09-07T15:30:35.200Z,5.47
2022-09-07T15:32:04.485Z,4.69
2022-09-07T15:33:24.356Z,6.94
2022-09-07T15:36:10.961Z,7.91
2022-09-07T15:40:18.395Z,7.29
2022-09-07T15:41:40.740Z,5.27
2022-09-07T15:43:20.078Z,7.10
2022-09-07T15:44:30.319Z,5.54
2022-09-07T15:45:51.833Z,6.58
2022-09-07T15:48:39.582Z,7.99
2022-09-07T15:50:05.651Z,7.69
2022-09-07T15:52:46.862Z,6.43
2022-09-07T15:54:12.807Z,7.28
2022-09-07T15:55:33.387Z,6.02
2022-09-07T15:58:24.591Z,8.19
2022-09-07T15:59:45.907Z,8.12
2022-09-07T16:04:10.556Z,8.36
2022-09-07T16:05:32.985Z,8.91
2022-09-07T16:06:55.147Z,8.83
2022-09-07T16:09:41.922Z,7.67
2022-09-07T16:11:23.924Z,9.45
2022-09-07T16:13:02.257Z,9.11
2022-09-07T16:14:09.750Z,9.95
2022-09-07T16:15:31.696Z,9.32
2022-09-07T16:18:21.017Z,13.65
2022-09-07T16:21:11.813Z,10.43
2022-09-07T16:24:00.981Z,12.59
2022-09-07T16:25:22.939Z,9.73
2022-09-07T16:26:44.533Z,13.24
2022-09-07T16:28:07.066Z,11.27
2022-09-07T16:29:30.872Z,9.87
2022-09-07T16:30:53.550Z,14.98
2022-09-07T16:33:39.070Z,11.11
2022-09-07T16:35:00.767Z,13.63
2022-09-07T16:36:24.190Z,10.43
2022-09-07T16:39:09.670Z,10.59
2022-09-07T16:40:33.858Z,12.04
2022-09-07T16:41:55.786Z,12.82
2022-09-07T16:43:17.177Z,10.62
2022-09-07T16:44:38.903Z,9.63
2022-09-07T16:47:24.570Z,12.80
2022-09-07T16:48:49.821Z,15.01
2022-09-07T16:50:11.628Z,11.88
2022-09-07T16:51:33.427Z,13.02
2022-09-07T16:52:57.734Z,16.52
2022-09-07T16:55:40.702Z,39.98
2022-09-07T16:57:04.293Z,25.32
2022-09-07T16:58:48.005Z,22.47
2022-09-07T16:59:56.561Z,24.22
2022-09-07T17:01:26.180Z,23.06
2022-09-07T17:04:28.194Z,59.93
2022-09-07T17:07:14.699Z,83.97
2022-09-07T17:08:38.879Z,76.50
2022-09-07T17:10:01.120Z,74.83
2022-09-07T17:11:33.956Z,67.69
2022-09-07T17:12:58.855Z,79.67
2022-09-07T17:14:20.381Z,69.59
2022-09-07T17:15:41.624Z,85.93
2022-09-07T17:17:04.021Z,74.96
2022-09-07T17:19:49.517Z,70.78
2022-09-07T17:22:35.511Z,53.57
2022-09-07T17:23:59.392Z,57.00
2022-09-07T17:25:20.891Z,57.56
2022-09-07T17:26:43.461Z,51.69
2022-09-07T17:30:41.444Z,44.93
2022-09-07T17:33:27.970Z,32.23
2022-09-07T17:34:51.749Z,35.14
2022-09-07T17:36:17.591Z,46.43
2022-09-07T17:37:40.824Z,44.91
2022-09-07T17:39:18.855Z,41.12
2022-09-07T17:40:25.820Z,37.69
2022-09-07T17:41:51.130Z,40.84
2022-09-07T17:44:38.454Z,37.10
2022-09-07T17:47:27.785Z,49.84
2022-09-07T17:48:50.481Z,52.41
2022-09-07T17:50:13.599Z,54.71
2022-09-07T17:51:34.896Z,42.68
2022-09-07T17:52:57.276Z,50.14
2022-09-07T17:54:18.861Z,57.83
2022-09-07T17:55:40.373Z,50.26
2022-09-07T17:57:01.960Z,54.73
2022-09-07T17:58:23.389Z,63.15
2022-09-07T18:01:17.794Z,45.12
2022-09-07T18:03:42.686Z,50.62
2022-09-07T18:05:07.292Z,35.45
2022-09-07T18:06:28.910Z,40.96
2022-09-07T18:07:51.763Z,46.03
2022-09-07T18:09:16.209Z,31.81
2022-09-07T18:12:02.209Z,46.88
2022-09-07T18:13:35.660Z,39.83
2022-09-07T18:14:49.852Z,40.51
2022-09-07T18:17:34.658Z,61.28
2022-09-07T18:18:59.703Z,56.10
2022-09-07T18:20:21.434Z,55.91
2022-09-07T18:21:42.967Z,53.60
2022-09-07T18:23:06.053Z,55.43
2022-09-07T18:24:28.170Z,56.13
2022-09-07T18:25:56.205Z,52.86
2022-09-07T18:27:17.354Z,61.51
2022-09-07T18:30:02.856Z,54.98
2022-09-07T18:31:27.751Z,64.38
2022-09-07T18:32:49.374Z,51.66
2022-09-07T18:34:10.873Z,49.89
2022-09-07T18:35:34.166Z,44.84
2022-09-07T18:36:55.671Z,47.81
2022-09-07T18:38:16.699Z,44.41
2022-09-07T18:39:38.129Z,49.45
2022-09-07T18:41:03.076Z,41.33
2022-09-07T18:42:24.888Z,38.52
2022-09-07T18:43:47.524Z,50.68
2022-09-07T18:46:34.772Z,46.41
2022-09-07T18:48:00.597Z,50.34
2022-09-07T18:49:23.556Z,58.21
2022-09-07T18:50:50.486Z,48.42
2022-09-07T18:53:35.347Z,48.27
2022-09-07T18:54:56.788Z,55.57
2022-09-07T18:56:22.658Z,57.05
2022-09-07T18:57:45.477Z,53.36
2022-09-07T18:59:06.913Z,58.62
2022-09-07T19:00:30.604Z,55.97
2022-09-07T19:01:53.803Z,48.97
2022-09-07T19:03:16.742Z,49.29
2022-09-07T19:06:03.386Z,54.53
2022-09-07T19:07:29.412Z,61.23
2022-09-07T19:08:47.583Z,54.36
2022-09-07T19:10:11.117Z,52.48
2022-09-07T19:11:34.624Z,62.06
2022-09-07T19:12:55.872Z,63.42
2022-09-07T19:14:17.246Z,60.82
2022-09-07T19:15:38.422Z,63.46
2022-09-07T19:17:00.223Z,58.08
2022-09-07T19:18:22.996Z,56.70
2022-09-07T19:19:44.479Z,62.95
2022-09-07T19:22:20.459Z,49.64
2022-09-07T19:23:43.000Z,45.30
2022-09-07T19:25:07.103Z,54.38
2022-09-07T19:26:33.041Z,49.70
2022-09-07T19:27:54.495Z,49.09
2022-09-07T19:29:17.122Z,49.06
2022-09-07T19:30:38.537Z,43.68
2022-09-07T19:31:59.981Z,46.53
2022-09-07T19:33:21.564Z,47.57
2022-09-07T19:34:42.845Z,48.52
2022-09-07T19:36:04.691Z,49.28
2022-09-07T19:37:26.107Z,51.61
2022-09-07T19:38:47.305Z,47.73
2022-09-07T19:40:11.951Z,51.32
2022-09-07T19:41:33.885Z,53.23
2022-09-07T19:42:55.027Z,48.91
2022-09-07T19:44:16.194Z,49.42
2022-09-07T19:45:38.448Z,57.22
2022-09-07T19:47:00.618Z,47.12
2022-09-07T19:48:22.236Z,47.19
2022-09-07T19:49:43.499Z,50.47
2022-09-07T19:51:06.544Z,55.05
2022-09-07T19:52:27.576Z,53.95
2022-09-07T19:53:49.009Z,52.79
2022-09-07T19:55:10.482Z,53.31
2022-09-07T19:56:34.263Z,55.02
2022-09-07T19:57:55.661Z,54.79
2022-09-07T19:59:16.923Z,66.44
2022-09-07T20:00:38.771Z,57.33
2022-09-07T20:01:59.958Z,57.14
2022-09-07T20:03:23.229Z,61.43
2022-09-07T20:04:44.697Z,56.62
2022-09-07T20:06:12.799Z,52.82
2022-09-07T20:07:33.787Z,51.04
2022-09-07T20:08:55.658Z,51.98
2022-09-07T20:10:18.901Z,48.37
2022-09-07T20:11:41.807Z,42.93
2022-09-07T20:13:03.046Z,45.85
2022-09-07T20:14:24.335Z,49.62
2022-09-07T20:17:08.254Z,47.62
2022-09-07T20:18:29.322Z,55.18
2022-09-07T20:19:50.392Z,55.78
2022-09-07T20:21:13.718Z,57.68
2022-09-07T20:22:36.384Z,63.56
2022-09-07T20:23:59.375Z,57.23
2022-09-07T20:25:20.941Z,54.19
2022-09-07T20:26:42.434Z,51.83
2022-09-07T20:28:03.664Z,54.48
2022-09-07T20:29:28.250Z,54.42
2022-09-07T20:30:49.756Z,52.36
2022-09-07T20:32:13.078Z,49.19
2022-09-07T20:33:36.250Z,51.14
2022-09-07T20:34:57.400Z,49.09
2022-09-07T20:36:20.697Z,49.99
2022-09-07T20:37:42.077Z,51.07
2022-09-07T20:39:03.584Z,52.66
2022-09-07T20:40:25.010Z,46.80
2022-09-07T20:41:46.145Z,55.27
2022-09-07T20:43:09.187Z,55.69
2022-09-07T20:44:30.533Z,51.62
2022-09-07T20:45:57.703Z,51.05
2022-09-07T20:47:19.474Z,53.98
2022-09-07T20:48:41.839Z,38.23
2022-09-07T20:50:04.554Z,52.72
2022-09-07T20:51:25.839Z,47.52
2022-09-07T20:52:47.115Z,50.07
2022-09-07T20:54:09.007Z,51.19
2022-09-07T20:55:33.042Z,55.89
2022-09-07T20:56:55.232Z,51.34
2022-09-07T20:58:16.254Z,51.41
2022-09-07T20:59:37.713Z,52.80
2022-09-07T21:01:02.105Z,49.82
2022-09-07T21:02:23.558Z,48.85
2022-09-07T21:03:49.272Z,46.19
2022-09-07T21:05:10.299Z,47.95
2022-09-07T21:06:31.734Z,45.67
2022-09-07T21:07:53.150Z,45.47
2022-09-07T21:09:14.492Z,47.74
2022-09-07T21:10:42.567Z,45.71
2022-09-07T21:12:04.066Z,47.07
2022-09-07T21:13:25.358Z,49.94
2022-09-07T21:14:46.994Z,50.76
2022-09-07T21:17:22.120Z,33.49
2022-09-07T21:18:43.832Z,46.55
2022-09-07T21:20:07.957Z,40.33
2022-09-07T21:21:38.635Z,40.58
2022-09-07T21:22:58.960Z,42.99
2022-09-07T21:24:21.233Z,38.75
2022-09-07T21:25:42.990Z,42.13
2022-09-07T21:27:04.103Z,36.89
2022-09-07T21:28:25.408Z,41.44
2022-09-07T21:29:46.800Z,40.03
2022-09-07T21:31:08.238Z,44.62
2022-09-07T21:32:31.082Z,46.30
2022-09-07T21:33:53.483Z,40.67
2022-09-07T21:35:14.759Z,40.61
2022-09-07T21:36:35.942Z,41.93
2022-09-07T21:37:59.800Z,38.34
2022-09-07T21:39:21.514Z,42.78
2022-09-07T21:40:42.882Z,41.32
2022-09-07T21:42:04.350Z,39.21
2022-09-07T21:43:26.717Z,41.43
2022-09-07T21:44:47.903Z,40.92
2022-09-07T21:46:12.457Z,44.22
2022-09-07T21:47:33.493Z,41.50
2022-09-07T21:48:55.684Z,43.38
2022-09-07T21:50:17.236Z,44.33
2022-09-07T21:51:38.515Z,46.00
2022-09-07T21:52:59.991Z,40.32
2022-09-07T21:54:21.405Z,45.15
2022-09-07T21:55:42.693Z,46.83
2022-09-07T21:57:04.510Z,48.78
2022-09-07T21:58:28.626Z,47.18
2022-09-07T21:59:50.738Z,50.83
2022-09-07T22:02:26.354Z,52.49
2022-09-07T22:08:33.274Z,44.36
2022-09-07T22:09:54.477Z,66.99
2022-09-07T22:11:18.087Z,65.26
2022-09-07T22:12:39.422Z,56.21
2022-09-07T22:14:02.203Z,49.52
2022-09-07T22:15:24.004Z,54.49
2022-09-07T22:16:45.220Z,49.43
2022-09-07T22:18:07.359Z,43.28
2022-09-07T22:19:28.347Z,43.70
2022-09-07T22:22:16.273Z,46.37
2022-09-07T22:23:39.873Z,51.06
2022-09-07T22:25:01.745Z,46.22
2022-09-07T22:26:24.626Z,46.14
2022-09-07T22:27:45.942Z,46.52
2022-09-07T22:29:07.783Z,45.59
2022-09-07T22:30:29.402Z,37.25
2022-09-07T22:31:50.957Z,47.26
2022-09-07T22:33:12.252Z,47.31
2022-09-07T22:34:33.799Z,40.83
2022-09-07T22:35:54.787Z,38.74
2022-09-07T22:37:16.536Z,46.95
2022-09-07T22:38:38.018Z,44.67